OCN411 LBWN-EDDM
Flight info
| Callsign | OCN411 |
|---|---|
| Flight time | 2h 4m |
| Altitude | 36000 |
| Route | BALIK T777 KOMAN DCT LAMIT DCT DIDIX DCT PARAK DCT OLATI DCT SUNIS DCT VATET DCT REDBU Q112 NAPSA NAPSA4A |
| Aircraft | A320/M-SDE3FGHIRWY/LB1 |
Departure
| Time | 2026-05-08 11:33 |
|---|---|
| Airport | Varna Airport (LBWN) |
Arrival
| Time | 2026-05-08 13:38 |
|---|---|
| Airport | Munich Airport (EDDM) |
| Time | Latitude | Longitude | Altitude | Speed | Heading |
|---|---|---|---|---|---|
| 2026-05-08 11:23 | 43.23472 | 27.83235 | 254 ft | 0 kts | 338° |
| 2026-05-08 11:28 | 43.23474 | 27.83234 | 254 ft | 1 kts | 338° |
| 2026-05-08 11:29 | 43.23500 | 27.83220 | 255 ft | 5 kts | 342° |
| 2026-05-08 11:29 | 43.23544 | 27.83248 | 257 ft | 9 kts | 80° |
| 2026-05-08 11:29 | 43.23504 | 27.83337 | 256 ft | 13 kts | 171° |
| 2026-05-08 11:29 | 43.23392 | 27.83302 | 249 ft | 19 kts | 235° |
| 2026-05-08 11:30 | 43.23395 | 27.83115 | 248 ft | 21 kts | 277° |
| 2026-05-08 11:30 | 43.23415 | 27.82899 | 247 ft | 24 kts | 277° |
| 2026-05-08 11:30 | 43.23438 | 27.82646 | 241 ft | 28 kts | 277° |
| 2026-05-08 11:30 | 43.23462 | 27.82362 | 236 ft | 30 kts | 277° |
| 2026-05-08 11:31 | 43.23489 | 27.82067 | 231 ft | 31 kts | 277° |
| 2026-05-08 11:31 | 43.23516 | 27.81766 | 225 ft | 32 kts | 277° |
| 2026-05-08 11:31 | 43.23543 | 27.81458 | 219 ft | 33 kts | 277° |
| 2026-05-08 11:31 | 43.23570 | 27.81140 | 210 ft | 34 kts | 276° |
| 2026-05-08 11:32 | 43.23540 | 27.80938 | 204 ft | 20 kts | 213° |
| 2026-05-08 11:32 | 43.23414 | 27.80966 | 205 ft | 18 kts | 150° |
| 2026-05-08 11:32 | 43.23334 | 27.81027 | 207 ft | 8 kts | 127° |
| 2026-05-08 11:32 | 43.23321 | 27.81110 | 209 ft | 13 kts | 97° |
| 2026-05-08 11:33 | 43.23280 | 27.81571 | 220 ft | 86 kts | 97° |
| 2026-05-08 11:33 | 43.23179 | 27.82710 | 235 ft | 151 kts | 97° |
| 2026-05-08 11:33 | 43.23041 | 27.84206 | 798 ft | 162 kts | 99° |
| 2026-05-08 11:33 | 43.22899 | 27.85727 | 1578 ft | 166 kts | 99° |
| 2026-05-08 11:34 | 43.22760 | 27.87283 | 2261 ft | 170 kts | 94° |
| 2026-05-08 11:34 | 43.23105 | 27.88881 | 2660 ft | 191 kts | 49° |
| 2026-05-08 11:34 | 43.24307 | 27.89721 | 3074 ft | 207 kts | 4° |
| 2026-05-08 11:34 | 43.25754 | 27.89317 | 3482 ft | 225 kts | 338° |
| 2026-05-08 11:35 | 43.27294 | 27.88542 | 3954 ft | 246 kts | 339° |
| 2026-05-08 11:35 | 43.28973 | 27.87774 | 4501 ft | 265 kts | 341° |
| 2026-05-08 11:35 | 43.30759 | 27.86998 | 5199 ft | 274 kts | 341° |
| 2026-05-08 11:35 | 43.32581 | 27.86224 | 5732 ft | 276 kts | 341° |
| 2026-05-08 11:36 | 43.34419 | 27.85447 | 5985 ft | 277 kts | 341° |
| 2026-05-08 11:36 | 43.36264 | 27.84666 | 6001 ft | 277 kts | 341° |
| 2026-05-08 11:36 | 43.38108 | 27.83885 | 6006 ft | 277 kts | 340° |
| 2026-05-08 11:36 | 43.39843 | 27.82778 | 5997 ft | 275 kts | 321° |
| 2026-05-08 11:37 | 43.41179 | 27.80899 | 6204 ft | 279 kts | 304° |
| 2026-05-08 11:37 | 43.42310 | 27.78736 | 7138 ft | 281 kts | 303° |
| 2026-05-08 11:37 | 43.43421 | 27.76581 | 8197 ft | 279 kts | 303° |
| 2026-05-08 11:37 | 43.44539 | 27.74419 | 9147 ft | 281 kts | 304° |
| 2026-05-08 11:38 | 43.45669 | 27.72242 | 10054 ft | 284 kts | 304° |
| 2026-05-08 11:38 | 43.46825 | 27.70023 | 10753 ft | 293 kts | 304° |
| 2026-05-08 11:38 | 43.48041 | 27.67698 | 11358 ft | 306 kts | 304° |
| 2026-05-08 11:38 | 43.49289 | 27.65313 | 12135 ft | 311 kts | 304° |
| 2026-05-08 11:39 | 43.50550 | 27.62903 | 12953 ft | 314 kts | 304° |
| 2026-05-08 11:39 | 43.51825 | 27.60465 | 13740 ft | 318 kts | 304° |
| 2026-05-08 11:39 | 43.53114 | 27.57997 | 14488 ft | 322 kts | 304° |
| 2026-05-08 11:39 | 43.54422 | 27.55491 | 15186 ft | 326 kts | 304° |
| 2026-05-08 11:40 | 43.55748 | 27.52952 | 15893 ft | 330 kts | 304° |
| 2026-05-08 11:40 | 43.57088 | 27.50379 | 16588 ft | 334 kts | 304° |
| 2026-05-08 11:40 | 43.58447 | 27.47771 | 17251 ft | 338 kts | 304° |
| 2026-05-08 11:40 | 43.59819 | 27.45135 | 17893 ft | 342 kts | 304° |
| 2026-05-08 11:41 | 43.61208 | 27.42461 | 18541 ft | 346 kts | 304° |
| 2026-05-08 11:41 | 43.62608 | 27.39762 | 19188 ft | 349 kts | 304° |
| 2026-05-08 11:41 | 43.64021 | 27.37038 | 19832 ft | 351 kts | 304° |
| 2026-05-08 11:41 | 43.65442 | 27.34294 | 20460 ft | 354 kts | 304° |
| 2026-05-08 11:42 | 43.66823 | 27.31484 | 21079 ft | 357 kts | 300° |
| 2026-05-08 11:42 | 43.68020 | 27.28497 | 21686 ft | 359 kts | 295° |
| 2026-05-08 11:42 | 43.69021 | 27.25352 | 22285 ft | 361 kts | 291° |
| 2026-05-08 11:42 | 43.69953 | 27.22144 | 22877 ft | 363 kts | 291° |
| 2026-05-08 11:43 | 43.70880 | 27.18907 | 23447 ft | 365 kts | 291° |
| 2026-05-08 11:43 | 43.71813 | 27.15645 | 24012 ft | 368 kts | 291° |
| 2026-05-08 11:43 | 43.72755 | 27.12358 | 24571 ft | 371 kts | 291° |
| 2026-05-08 11:43 | 43.73703 | 27.09050 | 25116 ft | 373 kts | 291° |
| 2026-05-08 11:44 | 43.74656 | 27.05721 | 25646 ft | 375 kts | 290° |
| 2026-05-08 11:44 | 43.75614 | 27.02372 | 26167 ft | 377 kts | 290° |
| 2026-05-08 11:44 | 43.76577 | 26.99005 | 26689 ft | 379 kts | 290° |
| 2026-05-08 11:44 | 43.77543 | 26.95622 | 27184 ft | 381 kts | 290° |
| 2026-05-08 11:45 | 43.78513 | 26.92218 | 27650 ft | 383 kts | 290° |
| 2026-05-08 11:45 | 43.79489 | 26.88794 | 28126 ft | 385 kts | 290° |
| 2026-05-08 11:45 | 43.80468 | 26.85353 | 28577 ft | 387 kts | 290° |
| 2026-05-08 11:45 | 43.81451 | 26.81889 | 29000 ft | 389 kts | 290° |
| 2026-05-08 11:46 | 43.82439 | 26.78405 | 29421 ft | 391 kts | 290° |
| 2026-05-08 11:46 | 43.83430 | 26.74905 | 29841 ft | 393 kts | 290° |
| 2026-05-08 11:46 | 43.84424 | 26.71390 | 30242 ft | 395 kts | 290° |
| 2026-05-08 11:46 | 43.85420 | 26.67857 | 30630 ft | 396 kts | 290° |
| 2026-05-08 11:47 | 43.86421 | 26.64311 | 31007 ft | 398 kts | 289° |
| 2026-05-08 11:47 | 43.87423 | 26.60753 | 31401 ft | 398 kts | 290° |
| 2026-05-08 11:47 | 43.88425 | 26.57186 | 31771 ft | 399 kts | 289° |
| 2026-05-08 11:47 | 43.89431 | 26.53608 | 32140 ft | 400 kts | 289° |
| 2026-05-08 11:48 | 43.90436 | 26.50022 | 32491 ft | 401 kts | 289° |
| 2026-05-08 11:48 | 43.91444 | 26.46426 | 32808 ft | 403 kts | 289° |
| 2026-05-08 11:48 | 43.92453 | 26.42814 | 33118 ft | 404 kts | 289° |
| 2026-05-08 11:48 | 43.93465 | 26.39192 | 33430 ft | 405 kts | 289° |
| 2026-05-08 11:49 | 43.94477 | 26.35560 | 33715 ft | 406 kts | 289° |
| 2026-05-08 11:49 | 43.95490 | 26.31914 | 34025 ft | 407 kts | 288° |
| 2026-05-08 11:49 | 43.96500 | 26.28276 | 34390 ft | 405 kts | 288° |
| 2026-05-08 11:49 | 43.97538 | 26.24663 | 34686 ft | 405 kts | 290° |
| 2026-05-08 11:50 | 43.98708 | 26.21109 | 34908 ft | 408 kts | 293° |
| 2026-05-08 11:50 | 44.00020 | 26.17622 | 35122 ft | 410 kts | 296° |
| 2026-05-08 11:50 | 44.01422 | 26.14188 | 35345 ft | 411 kts | 296° |
| 2026-05-08 11:50 | 44.02841 | 26.10752 | 35547 ft | 412 kts | 296° |
| 2026-05-08 11:51 | 44.04264 | 26.07307 | 35742 ft | 413 kts | 296° |
| 2026-05-08 11:51 | 44.05689 | 26.03852 | 35915 ft | 414 kts | 296° |
| 2026-05-08 11:51 | 44.07117 | 26.00387 | 35996 ft | 415 kts | 296° |
| 2026-05-08 11:52 | 44.09974 | 25.93439 | 36007 ft | 415 kts | 296° |
| 2026-05-08 11:52 | 44.12825 | 25.86485 | 36012 ft | 416 kts | 296° |
| 2026-05-08 11:53 | 44.15676 | 25.79512 | 36014 ft | 417 kts | 296° |
| 2026-05-08 11:53 | 44.18528 | 25.72521 | 36014 ft | 416 kts | 296° |
| 2026-05-08 11:54 | 44.21376 | 25.65518 | 36018 ft | 417 kts | 296° |
| 2026-05-08 11:54 | 44.24226 | 25.58498 | 36016 ft | 418 kts | 296° |
| 2026-05-08 11:55 | 44.27082 | 25.51447 | 36013 ft | 419 kts | 296° |
| 2026-05-08 11:55 | 44.29933 | 25.44386 | 36017 ft | 420 kts | 296° |
| 2026-05-08 11:56 | 44.32783 | 25.37317 | 36016 ft | 419 kts | 296° |
| 2026-05-08 11:56 | 44.35628 | 25.30236 | 36015 ft | 419 kts | 295° |
| 2026-05-08 11:57 | 44.38464 | 25.23162 | 36019 ft | 418 kts | 295° |
| 2026-05-08 11:57 | 44.41295 | 25.16077 | 36015 ft | 420 kts | 295° |
| 2026-05-08 11:58 | 44.44129 | 25.08975 | 36019 ft | 420 kts | 295° |
| 2026-05-08 11:58 | 44.46959 | 25.01864 | 36019 ft | 420 kts | 295° |
| 2026-05-08 11:59 | 44.51198 | 24.91172 | 36021 ft | 421 kts | 295° |
| 2026-05-08 11:59 | 44.54023 | 24.84028 | 36023 ft | 420 kts | 295° |
| 2026-05-08 12:00 | 44.56841 | 24.76881 | 36024 ft | 421 kts | 295° |
| 2026-05-08 12:00 | 44.59655 | 24.69723 | 36023 ft | 420 kts | 295° |
| 2026-05-08 12:01 | 44.62463 | 24.62567 | 36028 ft | 420 kts | 295° |
| 2026-05-08 12:01 | 44.65270 | 24.55397 | 36031 ft | 420 kts | 295° |
| 2026-05-08 12:02 | 44.68071 | 24.48220 | 36035 ft | 421 kts | 295° |
| 2026-05-08 12:02 | 44.70865 | 24.41044 | 36031 ft | 420 kts | 295° |
| 2026-05-08 12:03 | 44.73654 | 24.33859 | 36034 ft | 420 kts | 294° |
| 2026-05-08 12:03 | 44.76442 | 24.26661 | 36032 ft | 420 kts | 294° |
| 2026-05-08 12:04 | 44.79224 | 24.19461 | 36027 ft | 421 kts | 294° |
| 2026-05-08 12:04 | 44.82002 | 24.12250 | 36022 ft | 421 kts | 294° |
| 2026-05-08 12:05 | 44.84780 | 24.05023 | 36034 ft | 421 kts | 294° |
| 2026-05-08 12:05 | 44.87554 | 23.97783 | 36033 ft | 421 kts | 294° |
| 2026-05-08 12:06 | 44.90323 | 23.90540 | 36034 ft | 421 kts | 294° |
| 2026-05-08 12:06 | 44.93088 | 23.83290 | 36031 ft | 422 kts | 294° |
| 2026-05-08 12:07 | 44.95847 | 23.76033 | 36034 ft | 421 kts | 294° |
| 2026-05-08 12:07 | 44.98606 | 23.68758 | 36030 ft | 422 kts | 294° |
| 2026-05-08 12:08 | 45.01356 | 23.61491 | 36021 ft | 421 kts | 294° |
| 2026-05-08 12:08 | 45.04104 | 23.54209 | 36028 ft | 421 kts | 294° |
| 2026-05-08 12:09 | 45.06842 | 23.46930 | 36030 ft | 420 kts | 294° |
| 2026-05-08 12:09 | 45.09574 | 23.39647 | 36032 ft | 421 kts | 294° |
| 2026-05-08 12:10 | 45.12220 | 23.32322 | 36036 ft | 420 kts | 292° |
| 2026-05-08 12:10 | 45.14772 | 23.24926 | 36036 ft | 419 kts | 292° |
| 2026-05-08 12:11 | 45.17323 | 23.17535 | 36040 ft | 419 kts | 292° |
| 2026-05-08 12:11 | 45.19874 | 23.10133 | 36045 ft | 420 kts | 292° |
| 2026-05-08 12:12 | 45.22428 | 23.02718 | 36048 ft | 420 kts | 292° |
| 2026-05-08 12:12 | 45.24975 | 22.95303 | 36062 ft | 420 kts | 292° |
| 2026-05-08 12:13 | 45.27520 | 22.87871 | 36075 ft | 420 kts | 292° |
| 2026-05-08 12:13 | 45.30063 | 22.80426 | 36075 ft | 421 kts | 292° |
| 2026-05-08 12:14 | 45.32602 | 22.72977 | 36077 ft | 421 kts | 292° |
| 2026-05-08 12:14 | 45.35133 | 22.65525 | 36071 ft | 420 kts | 292° |
| 2026-05-08 12:15 | 45.37660 | 22.58067 | 36073 ft | 420 kts | 292° |
| 2026-05-08 12:15 | 45.40179 | 22.50609 | 36065 ft | 420 kts | 292° |
| 2026-05-08 12:16 | 45.42699 | 22.43134 | 36062 ft | 420 kts | 292° |
| 2026-05-08 12:16 | 45.45213 | 22.35648 | 36056 ft | 421 kts | 291° |
| 2026-05-08 12:17 | 45.47726 | 22.28144 | 36050 ft | 421 kts | 291° |
| 2026-05-08 12:17 | 45.50234 | 22.20642 | 36045 ft | 421 kts | 291° |
| 2026-05-08 12:18 | 45.52735 | 22.13129 | 36047 ft | 421 kts | 291° |
| 2026-05-08 12:18 | 45.55233 | 22.05605 | 36048 ft | 421 kts | 291° |
| 2026-05-08 12:19 | 45.57721 | 21.98093 | 36042 ft | 420 kts | 291° |
| 2026-05-08 12:19 | 45.60208 | 21.90564 | 36039 ft | 421 kts | 291° |
| 2026-05-08 12:20 | 45.62690 | 21.83026 | 36041 ft | 421 kts | 291° |
| 2026-05-08 12:20 | 45.65172 | 21.75466 | 36038 ft | 422 kts | 291° |
| 2026-05-08 12:21 | 45.67648 | 21.67901 | 36037 ft | 422 kts | 291° |
| 2026-05-08 12:21 | 45.70122 | 21.60319 | 36033 ft | 422 kts | 291° |
| 2026-05-08 12:22 | 45.72594 | 21.52729 | 36029 ft | 422 kts | 291° |
| 2026-05-08 12:22 | 45.75041 | 21.45185 | 36035 ft | 422 kts | 291° |
| 2026-05-08 12:23 | 45.77503 | 21.37579 | 36038 ft | 422 kts | 291° |
| 2026-05-08 12:23 | 45.79956 | 21.29974 | 36043 ft | 421 kts | 290° |
| 2026-05-08 12:24 | 45.82400 | 21.22372 | 36035 ft | 422 kts | 290° |
| 2026-05-08 12:24 | 45.84845 | 21.14753 | 36035 ft | 422 kts | 291° |
| 2026-05-08 12:25 | 45.87282 | 21.07130 | 36035 ft | 422 kts | 290° |
| 2026-05-08 12:25 | 45.89696 | 20.99491 | 36024 ft | 422 kts | 290° |
| 2026-05-08 12:26 | 45.92011 | 20.91799 | 36012 ft | 421 kts | 289° |
| 2026-05-08 12:26 | 45.94316 | 20.84098 | 36015 ft | 421 kts | 290° |
| 2026-05-08 12:27 | 45.96615 | 20.76417 | 36015 ft | 419 kts | 289° |
| 2026-05-08 12:27 | 45.98908 | 20.68740 | 36013 ft | 420 kts | 289° |
| 2026-05-08 12:28 | 46.01191 | 20.61064 | 36013 ft | 419 kts | 289° |
| 2026-05-08 12:28 | 46.03472 | 20.53380 | 36013 ft | 420 kts | 289° |
| 2026-05-08 12:29 | 46.05750 | 20.45684 | 36015 ft | 419 kts | 289° |
| 2026-05-08 12:29 | 46.08017 | 20.37998 | 36014 ft | 419 kts | 290° |
| 2026-05-08 12:30 | 46.10284 | 20.30292 | 36017 ft | 418 kts | 289° |
| 2026-05-08 12:30 | 46.12536 | 20.22616 | 36016 ft | 417 kts | 289° |
| 2026-05-08 12:31 | 46.14779 | 20.14937 | 36021 ft | 417 kts | 289° |
| 2026-05-08 12:31 | 46.17091 | 20.07295 | 36023 ft | 418 kts | 291° |
| 2026-05-08 12:32 | 46.19576 | 19.99762 | 36026 ft | 417 kts | 291° |
| 2026-05-08 12:32 | 46.22041 | 19.92288 | 36028 ft | 417 kts | 291° |
| 2026-05-08 12:33 | 46.24518 | 19.84753 | 36023 ft | 416 kts | 291° |
| 2026-05-08 12:33 | 46.26985 | 19.77227 | 36029 ft | 415 kts | 291° |
| 2026-05-08 12:34 | 46.29441 | 19.69710 | 36032 ft | 415 kts | 291° |
| 2026-05-08 12:34 | 46.31890 | 19.62189 | 36031 ft | 415 kts | 291° |
| 2026-05-08 12:35 | 46.34336 | 19.54659 | 36032 ft | 415 kts | 291° |
| 2026-05-08 12:35 | 46.36783 | 19.47100 | 36033 ft | 415 kts | 291° |
| 2026-05-08 12:36 | 46.39199 | 19.39616 | 36036 ft | 414 kts | 291° |
| 2026-05-08 12:36 | 46.41626 | 19.32077 | 36038 ft | 413 kts | 290° |
| 2026-05-08 12:37 | 46.44043 | 19.24547 | 36036 ft | 413 kts | 290° |
| 2026-05-08 12:37 | 46.46456 | 19.17009 | 36030 ft | 413 kts | 290° |
| 2026-05-08 12:38 | 46.48864 | 19.09461 | 36034 ft | 414 kts | 290° |
| 2026-05-08 12:38 | 46.51270 | 19.01893 | 36030 ft | 414 kts | 290° |
| 2026-05-08 12:39 | 46.53652 | 18.94380 | 36031 ft | 414 kts | 290° |
| 2026-05-08 12:39 | 46.56049 | 18.86801 | 36023 ft | 414 kts | 290° |
| 2026-05-08 12:40 | 46.58441 | 18.79220 | 36028 ft | 414 kts | 290° |
| 2026-05-08 12:40 | 46.60825 | 18.71635 | 36032 ft | 413 kts | 290° |
| 2026-05-08 12:41 | 46.63203 | 18.64049 | 36035 ft | 413 kts | 290° |
| 2026-05-08 12:41 | 46.65560 | 18.56508 | 36035 ft | 413 kts | 290° |
| 2026-05-08 12:42 | 46.67928 | 18.48910 | 36031 ft | 413 kts | 290° |
| 2026-05-08 12:42 | 46.70287 | 18.41314 | 36032 ft | 412 kts | 290° |
| 2026-05-08 12:43 | 46.72642 | 18.33708 | 36030 ft | 412 kts | 289° |
| 2026-05-08 12:43 | 46.74993 | 18.26096 | 36030 ft | 412 kts | 289° |
| 2026-05-08 12:44 | 46.77319 | 18.18537 | 36031 ft | 413 kts | 289° |
| 2026-05-08 12:44 | 46.79660 | 18.10909 | 36031 ft | 413 kts | 289° |
| 2026-05-08 12:45 | 46.81999 | 18.03269 | 36034 ft | 412 kts | 289° |
| 2026-05-08 12:45 | 46.84314 | 17.95682 | 36030 ft | 413 kts | 289° |
| 2026-05-08 12:46 | 46.86639 | 17.88032 | 36033 ft | 412 kts | 289° |
| 2026-05-08 12:46 | 46.88961 | 17.80368 | 36038 ft | 413 kts | 290° |
| 2026-05-08 12:47 | 46.91262 | 17.72763 | 36039 ft | 413 kts | 290° |
| 2026-05-08 12:47 | 46.93572 | 17.65096 | 36039 ft | 413 kts | 289° |
| 2026-05-08 12:48 | 46.95876 | 17.57420 | 36040 ft | 413 kts | 289° |
| 2026-05-08 12:48 | 46.98007 | 17.49655 | 36043 ft | 411 kts | 285° |
| 2026-05-08 12:49 | 46.99571 | 17.41670 | 36041 ft | 408 kts | 280° |
| 2026-05-08 12:49 | 47.00735 | 17.33606 | 36045 ft | 407 kts | 278° |
| 2026-05-08 12:50 | 47.01878 | 17.25481 | 36044 ft | 407 kts | 278° |
| 2026-05-08 12:50 | 47.03015 | 17.17354 | 36044 ft | 408 kts | 278° |
| 2026-05-08 12:51 | 47.04700 | 17.05226 | 36046 ft | 408 kts | 278° |
| 2026-05-08 12:52 | 47.05822 | 16.97082 | 36052 ft | 408 kts | 278° |
| 2026-05-08 12:52 | 47.07487 | 16.84931 | 36055 ft | 408 kts | 278° |
| 2026-05-08 12:53 | 47.08598 | 16.76775 | 36056 ft | 408 kts | 278° |
| 2026-05-08 12:53 | 47.09699 | 16.68623 | 36057 ft | 407 kts | 278° |
| 2026-05-08 12:54 | 47.10793 | 16.60492 | 36057 ft | 408 kts | 278° |
| 2026-05-08 12:54 | 47.11880 | 16.52373 | 36060 ft | 408 kts | 277° |
| 2026-05-08 12:55 | 47.12962 | 16.44228 | 36059 ft | 407 kts | 277° |
| 2026-05-08 12:55 | 47.14077 | 16.36131 | 36060 ft | 408 kts | 280° |
| 2026-05-08 12:56 | 47.15628 | 16.28075 | 36059 ft | 409 kts | 282° |
| 2026-05-08 12:56 | 47.17283 | 16.20147 | 36056 ft | 409 kts | 282° |
| 2026-05-08 12:57 | 47.18950 | 16.12142 | 36063 ft | 409 kts | 282° |
| 2026-05-08 12:57 | 47.20593 | 16.04216 | 36062 ft | 409 kts | 282° |
| 2026-05-08 12:58 | 47.22242 | 15.96232 | 36066 ft | 409 kts | 282° |
| 2026-05-08 12:58 | 47.23891 | 15.88219 | 36060 ft | 409 kts | 282° |
| 2026-05-08 12:59 | 47.25523 | 15.80245 | 36066 ft | 410 kts | 282° |
| 2026-05-08 12:59 | 47.27161 | 15.72213 | 36066 ft | 410 kts | 282° |
| 2026-05-08 13:00 | 47.28787 | 15.64213 | 36068 ft | 409 kts | 282° |
| 2026-05-08 13:00 | 47.30404 | 15.56222 | 36067 ft | 409 kts | 282° |
| 2026-05-08 13:01 | 47.32027 | 15.48167 | 36071 ft | 410 kts | 282° |
| 2026-05-08 13:01 | 47.33638 | 15.40146 | 36061 ft | 410 kts | 282° |
| 2026-05-08 13:02 | 47.35246 | 15.32099 | 36069 ft | 410 kts | 282° |
| 2026-05-08 13:02 | 47.36849 | 15.24043 | 36070 ft | 410 kts | 282° |
| 2026-05-08 13:03 | 47.38445 | 15.15997 | 36075 ft | 410 kts | 281° |
| 2026-05-08 13:03 | 47.40036 | 15.07932 | 36073 ft | 410 kts | 282° |
| 2026-05-08 13:04 | 47.41625 | 14.99856 | 36079 ft | 410 kts | 282° |
| 2026-05-08 13:04 | 47.43200 | 14.91811 | 36082 ft | 412 kts | 282° |
| 2026-05-08 13:05 | 47.44775 | 14.83725 | 36084 ft | 411 kts | 282° |
| 2026-05-08 13:05 | 47.46355 | 14.75593 | 36090 ft | 411 kts | 282° |
| 2026-05-08 13:06 | 47.47918 | 14.67516 | 36095 ft | 411 kts | 282° |
| 2026-05-08 13:06 | 47.49475 | 14.59419 | 36093 ft | 411 kts | 282° |
| 2026-05-08 13:07 | 47.51028 | 14.51319 | 36085 ft | 411 kts | 282° |
| 2026-05-08 13:07 | 47.52576 | 14.43206 | 36085 ft | 412 kts | 282° |
| 2026-05-08 13:08 | 47.54120 | 14.35087 | 36086 ft | 412 kts | 281° |
| 2026-05-08 13:08 | 47.55654 | 14.26984 | 35933 ft | 409 kts | 281° |
| 2026-05-08 13:09 | 47.56417 | 14.22942 | 35359 ft | 414 kts | 280° |
| 2026-05-08 13:09 | 47.57190 | 14.18845 | 34518 ft | 419 kts | 280° |
| 2026-05-08 13:09 | 47.57963 | 14.14706 | 33532 ft | 421 kts | 280° |
| 2026-05-08 13:09 | 47.58737 | 14.10553 | 32685 ft | 420 kts | 281° |
| 2026-05-08 13:10 | 47.59529 | 14.06444 | 32062 ft | 415 kts | 282° |
| 2026-05-08 13:10 | 47.60455 | 14.02433 | 31402 ft | 413 kts | 286° |
| 2026-05-08 13:10 | 47.61528 | 13.98552 | 31039 ft | 404 kts | 288° |
| 2026-05-08 13:10 | 47.62638 | 13.94812 | 30763 ft | 393 kts | 289° |
| 2026-05-08 13:11 | 47.63732 | 13.91143 | 30493 ft | 389 kts | 289° |
| 2026-05-08 13:11 | 47.64817 | 13.87492 | 30171 ft | 387 kts | 289° |
| 2026-05-08 13:11 | 47.65894 | 13.83870 | 29774 ft | 384 kts | 289° |
| 2026-05-08 13:11 | 47.66963 | 13.80264 | 29374 ft | 382 kts | 289° |
| 2026-05-08 13:12 | 47.68025 | 13.76680 | 28985 ft | 380 kts | 289° |
| 2026-05-08 13:12 | 47.69079 | 13.73115 | 28587 ft | 378 kts | 289° |
| 2026-05-08 13:12 | 47.70128 | 13.69569 | 28193 ft | 375 kts | 289° |
| 2026-05-08 13:12 | 47.71169 | 13.66040 | 27809 ft | 374 kts | 290° |
| 2026-05-08 13:13 | 47.72203 | 13.62525 | 27407 ft | 372 kts | 290° |
| 2026-05-08 13:13 | 47.73233 | 13.59028 | 27015 ft | 370 kts | 290° |
| 2026-05-08 13:13 | 47.74257 | 13.55544 | 26622 ft | 369 kts | 290° |
| 2026-05-08 13:13 | 47.75275 | 13.52075 | 26228 ft | 366 kts | 290° |
| 2026-05-08 13:14 | 47.76287 | 13.48620 | 25841 ft | 365 kts | 290° |
| 2026-05-08 13:14 | 47.77293 | 13.45184 | 25450 ft | 364 kts | 291° |
| 2026-05-08 13:14 | 47.78295 | 13.41756 | 25059 ft | 362 kts | 291° |
| 2026-05-08 13:14 | 47.79279 | 13.38385 | 24660 ft | 360 kts | 291° |
| 2026-05-08 13:15 | 47.80271 | 13.34983 | 24255 ft | 359 kts | 290° |
| 2026-05-08 13:15 | 47.81256 | 13.31593 | 23851 ft | 357 kts | 290° |
| 2026-05-08 13:15 | 47.82237 | 13.28216 | 23451 ft | 356 kts | 291° |
| 2026-05-08 13:15 | 47.83218 | 13.24839 | 23041 ft | 354 kts | 291° |
| 2026-05-08 13:16 | 47.84181 | 13.21522 | 22512 ft | 352 kts | 291° |
| 2026-05-08 13:16 | 47.85147 | 13.18185 | 21980 ft | 349 kts | 291° |
| 2026-05-08 13:16 | 47.86105 | 13.14872 | 21447 ft | 347 kts | 291° |
| 2026-05-08 13:16 | 47.87039 | 13.11638 | 20945 ft | 344 kts | 291° |
| 2026-05-08 13:17 | 47.87980 | 13.08371 | 20411 ft | 342 kts | 291° |
| 2026-05-08 13:17 | 47.88914 | 13.05126 | 19880 ft | 340 kts | 291° |
| 2026-05-08 13:17 | 47.89831 | 13.01938 | 19368 ft | 338 kts | 291° |
| 2026-05-08 13:17 | 47.90752 | 12.98731 | 18902 ft | 335 kts | 291° |
| 2026-05-08 13:18 | 47.91651 | 12.95594 | 18644 ft | 333 kts | 291° |
| 2026-05-08 13:18 | 47.92558 | 12.92423 | 18401 ft | 331 kts | 292° |
| 2026-05-08 13:18 | 47.93486 | 12.89170 | 18165 ft | 356 kts | 292° |
| 2026-05-08 13:18 | 47.94497 | 12.85623 | 17902 ft | 386 kts | 292° |
| 2026-05-08 13:19 | 47.95648 | 12.81892 | 17665 ft | 411 kts | 296° |
| 2026-05-08 13:19 | 47.97056 | 12.78120 | 17411 ft | 418 kts | 299° |
| 2026-05-08 13:19 | 47.98524 | 12.74438 | 17165 ft | 419 kts | 300° |
| 2026-05-08 13:19 | 48.00029 | 12.70701 | 16912 ft | 418 kts | 300° |
| 2026-05-08 13:20 | 48.01506 | 12.67031 | 16662 ft | 416 kts | 300° |
| 2026-05-08 13:20 | 48.02989 | 12.63335 | 16405 ft | 415 kts | 300° |
| 2026-05-08 13:20 | 48.04475 | 12.59617 | 16156 ft | 413 kts | 300° |
| 2026-05-08 13:20 | 48.05928 | 12.55973 | 15906 ft | 412 kts | 300° |
| 2026-05-08 13:21 | 48.07378 | 12.52328 | 15654 ft | 410 kts | 300° |
| 2026-05-08 13:21 | 48.08836 | 12.48658 | 15406 ft | 409 kts | 300° |
| 2026-05-08 13:21 | 48.10271 | 12.45040 | 15159 ft | 407 kts | 300° |
| 2026-05-08 13:21 | 48.11715 | 12.41393 | 14904 ft | 406 kts | 300° |
| 2026-05-08 13:22 | 48.13146 | 12.37775 | 14651 ft | 405 kts | 300° |
| 2026-05-08 13:22 | 48.14623 | 12.34147 | 14396 ft | 404 kts | 302° |
| 2026-05-08 13:22 | 48.16199 | 12.30718 | 14155 ft | 403 kts | 303° |
| 2026-05-08 13:22 | 48.17821 | 12.27285 | 13900 ft | 402 kts | 304° |
| 2026-05-08 13:23 | 48.19440 | 12.23872 | 13656 ft | 401 kts | 304° |
| 2026-05-08 13:23 | 48.21035 | 12.20496 | 13403 ft | 400 kts | 304° |
| 2026-05-08 13:23 | 48.22643 | 12.17079 | 13146 ft | 399 kts | 303° |
| 2026-05-08 13:23 | 48.24236 | 12.13683 | 12880 ft | 398 kts | 303° |
| 2026-05-08 13:24 | 48.25809 | 12.10322 | 12544 ft | 396 kts | 304° |
| 2026-05-08 13:24 | 48.27302 | 12.06851 | 12083 ft | 392 kts | 295° |
| 2026-05-08 13:24 | 48.27955 | 12.03002 | 11620 ft | 388 kts | 272° |
| 2026-05-08 13:24 | 48.27655 | 11.98973 | 11202 ft | 386 kts | 258° |
| 2026-05-08 13:25 | 48.27122 | 11.95047 | 11020 ft | 386 kts | 259° |
| 2026-05-08 13:25 | 48.26677 | 11.91132 | 10604 ft | 384 kts | 261° |
| 2026-05-08 13:25 | 48.26307 | 11.87166 | 10181 ft | 381 kts | 262° |
| 2026-05-08 13:25 | 48.25983 | 11.83226 | 9768 ft | 379 kts | 263° |
| 2026-05-08 13:26 | 48.25676 | 11.79301 | 9373 ft | 378 kts | 263° |
| 2026-05-08 13:26 | 48.25378 | 11.75433 | 9016 ft | 377 kts | 263° |
| 2026-05-08 13:26 | 48.25075 | 11.71510 | 8980 ft | 378 kts | 263° |
| 2026-05-08 13:26 | 48.24773 | 11.67628 | 9008 ft | 378 kts | 263° |
| 2026-05-08 13:27 | 48.24463 | 11.63681 | 9029 ft | 378 kts | 263° |
| 2026-05-08 13:27 | 48.24163 | 11.59858 | 9103 ft | 361 kts | 263° |
| 2026-05-08 13:27 | 48.23879 | 11.56248 | 9073 ft | 338 kts | 263° |
| 2026-05-08 13:27 | 48.23611 | 11.52878 | 9048 ft | 317 kts | 263° |
| 2026-05-08 13:28 | 48.23358 | 11.49690 | 9040 ft | 298 kts | 263° |
| 2026-05-08 13:28 | 48.23122 | 11.46727 | 9040 ft | 280 kts | 263° |
| 2026-05-08 13:28 | 48.22895 | 11.43896 | 9009 ft | 264 kts | 263° |
| 2026-05-08 13:28 | 48.22682 | 11.41226 | 8839 ft | 255 kts | 263° |
| 2026-05-08 13:29 | 48.22471 | 11.38613 | 8682 ft | 247 kts | 263° |
| 2026-05-08 13:29 | 48.22268 | 11.36101 | 8444 ft | 243 kts | 263° |
| 2026-05-08 13:29 | 48.22065 | 11.33596 | 8115 ft | 243 kts | 263° |
| 2026-05-08 13:29 | 48.21860 | 11.31087 | 7777 ft | 244 kts | 263° |
| 2026-05-08 13:30 | 48.21656 | 11.28576 | 7443 ft | 244 kts | 263° |
| 2026-05-08 13:30 | 48.21719 | 11.26022 | 6902 ft | 253 kts | 287° |
| 2026-05-08 13:30 | 48.22632 | 11.23791 | 6508 ft | 252 kts | 319° |
| 2026-05-08 13:30 | 48.24137 | 11.22602 | 6337 ft | 242 kts | 349° |
| 2026-05-08 13:31 | 48.25751 | 11.22731 | 6170 ft | 232 kts | 21° |
| 2026-05-08 13:31 | 48.27034 | 11.24086 | 5968 ft | 225 kts | 53° |
| 2026-05-08 13:31 | 48.27718 | 11.26139 | 5709 ft | 222 kts | 69° |
| 2026-05-08 13:31 | 48.28363 | 11.28233 | 5422 ft | 221 kts | 58° |
| 2026-05-08 13:32 | 48.29213 | 11.30146 | 5164 ft | 220 kts | 54° |
| 2026-05-08 13:32 | 48.30037 | 11.32058 | 5007 ft | 217 kts | 61° |
| 2026-05-08 13:32 | 48.30639 | 11.34150 | 4998 ft | 218 kts | 72° |
| 2026-05-08 13:32 | 48.30986 | 11.36347 | 4997 ft | 219 kts | 78° |
| 2026-05-08 13:33 | 48.31262 | 11.38605 | 4997 ft | 219 kts | 79° |
| 2026-05-08 13:33 | 48.31495 | 11.40875 | 4995 ft | 220 kts | 81° |
| 2026-05-08 13:33 | 48.31691 | 11.43110 | 4985 ft | 214 kts | 82° |
| 2026-05-08 13:33 | 48.31860 | 11.45270 | 4974 ft | 201 kts | 82° |
| 2026-05-08 13:34 | 48.32015 | 11.47365 | 4945 ft | 201 kts | 82° |
| 2026-05-08 13:34 | 48.32163 | 11.49426 | 4741 ft | 201 kts | 82° |
| 2026-05-08 13:34 | 48.32313 | 11.51516 | 4476 ft | 201 kts | 82° |
| 2026-05-08 13:34 | 48.32460 | 11.53573 | 4219 ft | 200 kts | 82° |
| 2026-05-08 13:35 | 48.32611 | 11.55653 | 3958 ft | 199 kts | 82° |
| 2026-05-08 13:35 | 48.32761 | 11.57699 | 3703 ft | 198 kts | 82° |
| 2026-05-08 13:35 | 48.32913 | 11.59756 | 3445 ft | 197 kts | 81° |
| 2026-05-08 13:35 | 48.33060 | 11.61759 | 3277 ft | 188 kts | 81° |
| 2026-05-08 13:36 | 48.33205 | 11.63688 | 2996 ft | 185 kts | 81° |
| 2026-05-08 13:36 | 48.33344 | 11.65554 | 2724 ft | 174 kts | 82° |
| 2026-05-08 13:36 | 48.33474 | 11.67273 | 2523 ft | 157 kts | 83° |
| 2026-05-08 13:36 | 48.33591 | 11.68815 | 2291 ft | 144 kts | 81° |
| 2026-05-08 13:37 | 48.33708 | 11.70269 | 2036 ft | 136 kts | 83° |
| 2026-05-08 13:37 | 48.33818 | 11.71699 | 1918 ft | 139 kts | 83° |
| 2026-05-08 13:37 | 48.33913 | 11.73114 | 1770 ft | 137 kts | 83° |
| 2026-05-08 13:37 | 48.34024 | 11.74552 | 1592 ft | 137 kts | 82° |
| 2026-05-08 13:38 | 48.34133 | 11.75943 | 1491 ft | 128 kts | 83° |
| 2026-05-08 13:38 | 48.34215 | 11.77025 | 1483 ft | 80 kts | 84° |
| 2026-05-08 13:38 | 48.34260 | 11.77605 | 1481 ft | 40 kts | 83° |
| 2026-05-08 13:38 | 48.34290 | 11.77985 | 1482 ft | 30 kts | 82° |
| 2026-05-08 13:39 | 48.34339 | 11.78258 | 1480 ft | 24 kts | 63° |
| 2026-05-08 13:39 | 48.34423 | 11.78446 | 1479 ft | 20 kts | 53° |
| 2026-05-08 13:39 | 48.34497 | 11.78593 | 1476 ft | 10 kts | 53° |
| 2026-05-08 13:39 | 48.34531 | 11.78661 | 1474 ft | 5 kts | 54° |
| 2026-05-08 13:40 | 48.34542 | 11.78684 | 1474 ft | 2 kts | 53° |
| 2026-05-08 13:40 | 48.34556 | 11.78711 | 1474 ft | 4 kts | 51° |
| 2026-05-08 13:40 | 48.34584 | 11.78765 | 1474 ft | 8 kts | 54° |
| 2026-05-08 13:40 | 48.34622 | 11.78855 | 1476 ft | 11 kts | 66° |
| 2026-05-08 13:41 | 48.34640 | 11.78995 | 1475 ft | 15 kts | 83° |
| 2026-05-08 13:41 | 48.34652 | 11.79159 | 1474 ft | 16 kts | 83° |
| 2026-05-08 13:41 | 48.34666 | 11.79335 | 1474 ft | 17 kts | 83° |
| 2026-05-08 13:41 | 48.34684 | 11.79511 | 1471 ft | 13 kts | 63° |
| 2026-05-08 13:42 | 48.34778 | 11.79553 | 1470 ft | 15 kts | 6° |
| 2026-05-08 13:42 | 48.34888 | 11.79551 | 1470 ft | 16 kts | 353° |
| 2026-05-08 13:42 | 48.34998 | 11.79532 | 1471 ft | 16 kts | 353° |
| 2026-05-08 13:42 | 48.35113 | 11.79510 | 1470 ft | 17 kts | 353° |
| 2026-05-08 13:43 | 48.35230 | 11.79491 | 1469 ft | 17 kts | 354° |
| 2026-05-08 13:43 | 48.35354 | 11.79470 | 1466 ft | 17 kts | 353° |
| 2026-05-08 13:43 | 48.35474 | 11.79449 | 1466 ft | 17 kts | 354° |
| 2026-05-08 13:43 | 48.35587 | 11.79430 | 1468 ft | 15 kts | 354° |
| 2026-05-08 13:44 | 48.35680 | 11.79415 | 1472 ft | 11 kts | 354° |
| 2026-05-08 13:44 | 48.35744 | 11.79404 | 1475 ft | 8 kts | 353° |
| 2026-05-08 13:44 | 48.35791 | 11.79392 | 1476 ft | 4 kts | 327° |
| 2026-05-08 13:44 | 48.35798 | 11.79359 | 1477 ft | 3 kts | 268° |
| 2026-05-08 13:45 | 48.35794 | 11.79317 | 1478 ft | 4 kts | 263° |
| 2026-05-08 13:45 | 48.35789 | 11.79251 | 1478 ft | 7 kts | 263° |
| 2026-05-08 13:45 | 48.35788 | 11.79228 | 1478 ft | 0 kts | 264° |